Time;durP1;ratioP1;P1;durP2;ratioP2;P2;SDS_P1;SDS_P2;PMS_P1;PMS_P2;Temp;Humidity;BMP_temperature;BMP_pressure;BME280_temperature;BME280_humidity;BME280_pressure;Samples;Min_cycle;Max_cycle;Signal;HPM_P1;HPM_P2
2021/08/21 00:03:42;;;;;;;6.95;3.80;;;;;;;;;;10275941;28;20076;-54
2021/08/21 00:08:41;;;;;;;6.07;3.50;;;;;;;;;;10275898;28;20041;-56
2021/08/21 00:13:39;;;;;;;4.65;3.60;;;;;;;;;;10275594;28;20049;-55
2021/08/21 00:18:38;;;;;;;5.45;3.90;;;;;;;;;;10275720;28;20080;-56
2021/08/21 00:23:36;;;;;;;6.90;4.10;;;;;;;;;;10275356;28;20510;-56
2021/08/21 00:28:36;;;;;;;8.73;3.65;;;;;;;;;;10283292;28;20477;-58
2021/08/21 00:33:34;;;;;;;4.93;3.83;;;;;;;;;;10283033;28;20079;-58
2021/08/21 00:38:32;;;;;;;3.67;3.35;;;;;;;;;;10283073;28;20092;-55
2021/08/21 00:43:33;;;;;;;4.07;3.50;;;;;;;;;;10283286;28;20052;-56
2021/08/21 00:48:32;;;;;;;6.40;4.30;;;;;;;;;;10282016;28;20114;-55
2021/08/21 00:53:31;;;;;;;4.28;3.83;;;;;;;;;;10281678;28;20087;-55
2021/08/21 00:58:29;;;;;;;6.65;4.18;;;;;;;;;;10282345;28;20100;-55
2021/08/21 01:03:28;;;;;;;6.18;3.67;;;;;;;;;;10281834;28;20512;-55
2021/08/21 01:08:27;;;;;;;5.68;3.78;;;;;;;;;;10280303;28;20057;-56
2021/08/21 01:13:32;;;;;;;6.35;3.72;;;;;;;;;;10280136;28;20060;-55
2021/08/21 01:18:31;;;;;;;6.13;3.72;;;;;;;;;;10279952;28;20437;-56
2021/08/21 01:23:33;;;;;;;3.90;3.50;;;;;;;;;;10279656;28;20078;-56
2021/08/21 01:28:38;;;;;;;4.80;4.07;;;;;;;;;;10281238;28;20075;-57
2021/08/21 01:34:09;;;;;;;4.47;4.07;;;;;;;;;;10279319;28;20081;-56
2021/08/21 01:39:09;;;;;;;6.68;4.32;;;;;;;;;;10279060;28;20425;-56
2021/08/21 01:44:16;;;;;;;4.93;3.80;;;;;;;;;;10278841;28;20052;-56
2021/08/21 01:49:15;;;;;;;7.90;3.92;;;;;;;;;;10278462;28;20068;-57
2021/08/21 01:54:15;;;;;;;7.93;4.40;;;;;;;;;;10277842;28;20060;-55
2021/08/21 01:59:20;;;;;;;7.00;3.67;;;;;;;;;;10278148;28;20080;-54
2021/08/21 02:04:31;;;;;;;5.50;4.57;;;;;;;;;;10278054;28;20064;-55
2021/08/21 02:09:35;;;;;;;8.68;4.47;;;;;;;;;;10277774;28;20056;-57
2021/08/21 02:14:35;;;;;;;6.30;4.68;;;;;;;;;;10277684;28;20438;-56
2021/08/21 02:19:34;;;;;;;10.00;3.95;;;;;;;;;;10277541;28;20044;-57
2021/08/21 02:24:51;;;;;;;11.90;5.20;;;;;;;;;;10276710;28;20075;-57
2021/08/21 02:29:51;;;;;;;6.32;4.28;;;;;;;;;;10276918;28;20045;-56
2021/08/21 02:34:50;;;;;;;7.75;4.45;;;;;;;;;;10278873;28;20044;-56
2021/08/21 02:39:48;;;;;;;7.45;4.80;;;;;;;;;;10276061;28;20049;-57
2021/08/21 02:44:46;;;;;;;6.90;5.05;;;;;;;;;;10278490;28;20075;-57
2021/08/21 02:49:46;;;;;;;7.03;4.22;;;;;;;;;;10276971;28;20450;-58
2021/08/21 02:54:45;;;;;;;5.93;4.80;;;;;;;;;;10276072;28;20045;-58
2021/08/21 02:59:44;;;;;;;5.70;4.60;;;;;;;;;;10275634;28;20091;-58
2021/08/21 03:04:43;;;;;;;7.22;4.60;;;;;;;;;;10275845;28;20049;-57
2021/08/21 03:09:45;;;;;;;6.53;5.80;;;;;;;;;;10275701;28;20049;-57
2021/08/21 03:14:45;;;;;;;7.10;5.50;;;;;;;;;;10275455;28;20083;-58
2021/08/21 03:19:43;;;;;;;9.15;4.80;;;;;;;;;;10277221;28;20072;-58
2021/08/21 03:24:43;;;;;;;6.47;4.20;;;;;;;;;;10275109;28;20048;-57
2021/08/21 03:29:43;;;;;;;6.18;3.88;;;;;;;;;;10274814;28;20051;-58
2021/08/21 03:34:42;;;;;;;6.22;4.70;;;;;;;;;;10274889;28;20056;-57
2021/08/21 03:39:41;;;;;;;5.03;4.40;;;;;;;;;;10274759;28;20088;-57
2021/08/21 03:44:44;;;;;;;5.70;4.70;;;;;;;;;;10274217;28;20060;-57
2021/08/21 03:49:42;;;;;;;8.73;4.45;;;;;;;;;;10274419;28;20056;-56
2021/08/21 03:54:41;;;;;;;6.93;4.50;;;;;;;;;;10274447;28;20053;-58
2021/08/21 03:59:40;;;;;;;5.32;4.60;;;;;;;;;;10276646;28;20080;-57
2021/08/21 04:04:42;;;;;;;4.45;4.05;;;;;;;;;;10282305;28;20057;-58
2021/08/21 04:09:41;;;;;;;6.93;4.95;;;;;;;;;;10284301;28;20041;-57
2021/08/21 04:14:39;;;;;;;8.43;4.85;;;;;;;;;;10282330;28;20075;-57
2021/08/21 04:19:38;;;;;;;8.82;4.47;;;;;;;;;;10282837;28;20076;-57
2021/08/21 04:24:40;;;;;;;5.63;4.13;;;;;;;;;;10281911;28;20064;-58
2021/08/21 04:29:38;;;;;;;5.15;4.20;;;;;;;;;;10281482;28;20053;-55
2021/08/21 04:34:41;;;;;;;5.63;4.25;;;;;;;;;;10281554;28;20572;-58
2021/08/21 04:39:45;;;;;;;6.20;4.57;;;;;;;;;;10281256;28;20481;-56
2021/08/21 04:44:49;;;;;;;11.68;6.05;;;;;;;;;;10281559;28;20147;-57
2021/08/21 04:49:48;;;;;;;11.45;8.48;;;;;;;;;;10280762;28;20053;-58
2021/08/21 04:54:48;;;;;;;8.85;6.28;;;;;;;;;;10280681;28;20045;-57
2021/08/21 04:59:47;;;;;;;9.07;6.07;;;;;;;;;;10280323;28;20048;-57
2021/08/21 05:04:45;;;;;;;6.90;5.32;;;;;;;;;;10280391;28;20412;-58
2021/08/21 05:09:44;;;;;;;23.92;19.63;;;;;;;;;;10279643;28;20041;-58
2021/08/21 05:14:52;;;;;;;8.98;6.60;;;;;;;;;;10280416;28;20053;-57
2021/08/21 05:19:54;;;;;;;6.90;6.07;;;;;;;;;;10280044;28;20536;-56
2021/08/21 05:25:07;;;;;;;10.60;6.50;;;;;;;;;;10279078;28;20060;-57
2021/08/21 05:30:08;;;;;;;7.60;6.43;;;;;;;;;;10281128;28;20041;-57
2021/08/21 05:35:07;;;;;;;17.08;10.23;;;;;;;;;;10278665;28;20052;-57
2021/08/21 05:40:06;;;;;;;8.15;5.70;;;;;;;;;;10279024;28;20084;-57
2021/08/21 05:45:05;;;;;;;7.95;5.97;;;;;;;;;;10279530;28;20083;-57
2021/08/21 05:50:05;;;;;;;16.92;5.82;;;;;;;;;;10279897;28;20422;-56
2021/08/21 05:55:03;;;;;;;57.85;11.35;;;;;;;;;;10280393;28;20045;-56
2021/08/21 06:00:14;;;;;;;16.13;6.82;;;;;;;;;;10277744;28;20052;-57
2021/08/21 06:05:14;;;;;;;12.23;7.22;;;;;;;;;;10279081;28;20453;-57
2021/08/21 06:10:14;;;;;;;8.77;5.32;;;;;;;;;;10277371;28;20509;-56
2021/08/21 06:15:13;;;;;;;8.18;7.18;;;;;;;;;;10277248;28;20430;-57
2021/08/21 06:20:12;;;;;;;11.77;8.32;;;;;;;;;;10278904;28;20493;-57
2021/08/21 06:25:12;;;;;;;11.02;7.15;;;;;;;;;;10277417;28;20422;-56
2021/08/21 06:30:11;;;;;;;9.40;6.03;;;;;;;;;;10278157;28;20048;-57
2021/08/21 06:35:10;;;;;;;15.18;6.18;;;;;;;;;;10277803;28;20052;-56
2021/08/21 06:40:09;;;;;;;8.32;5.93;;;;;;;;;;10277849;28;20079;-55
2021/08/21 06:45:10;;;;;;;9.57;4.80;;;;;;;;;;10277845;28;20049;-57
2021/08/21 06:50:09;;;;;;;10.52;5.30;;;;;;;;;;10277628;28;20060;-57
2021/08/21 06:55:08;;;;;;;11.48;7.50;;;;;;;;;;10277970;28;20048;-57
2021/08/21 07:00:07;;;;;;;7.45;6.45;;;;;;;;;;10277844;28;20468;-57
2021/08/21 07:05:07;;;;;;;7.28;6.18;;;;;;;;;;10277114;28;20122;-57
2021/08/21 07:10:06;;;;;;;7.13;5.30;;;;;;;;;;10277585;28;20044;-57
2021/08/21 07:15:06;;;;;;;8.23;5.75;;;;;;;;;;10277272;28;20041;-56
2021/08/21 07:20:04;;;;;;;8.63;6.03;;;;;;;;;;10275976;28;20076;-57
2021/08/21 07:25:04;;;;;;;7.30;5.88;;;;;;;;;;10276950;28;20045;-57
2021/08/21 07:30:03;;;;;;;12.20;10.90;;;;;;;;;;10276811;28;20553;-57
2021/08/21 07:35:03;;;;;;;5.97;5.38;;;;;;;;;;10276639;28;20076;-58
2021/08/21 07:40:01;;;;;;;8.00;7.20;;;;;;;;;;10276733;28;20079;-56
2021/08/21 07:45:01;;;;;;;13.20;11.43;;;;;;;;;;10275572;28;20045;-57
2021/08/21 07:49:59;;;;;;;9.93;8.52;;;;;;;;;;10275822;28;20526;-56
2021/08/21 07:54:58;;;;;;;9.43;6.03;;;;;;;;;;10276488;28;20045;-58
2021/08/21 07:59:56;;;;;;;8.05;6.35;;;;;;;;;;10275039;28;20076;-58
2021/08/21 08:04:56;;;;;;;7.00;5.00;;;;;;;;;;10276092;28;20045;-57
2021/08/21 08:09:54;;;;;;;8.00;6.30;;;;;;;;;;10275960;28;20462;-56
2021/08/21 08:14:52;;;;;;;8.65;5.32;;;;;;;;;;10276026;28;20183;-56
2021/08/21 08:19:50;;;;;;;9.82;4.60;;;;;;;;;;10274607;28;20049;-62
2021/08/21 08:24:50;;;;;;;12.35;5.20;;;;;;;;;;10273942;28;20427;-61
2021/08/21 08:29:48;;;;;;;10.38;5.20;;;;;;;;;;10275808;28;20080;-57
2021/08/21 08:34:47;;;;;;;10.10;6.05;;;;;;;;;;10275543;28;20045;-57
2021/08/21 08:39:45;;;;;;;10.55;4.15;;;;;;;;;;10275315;28;20076;-57
2021/08/21 08:44:46;;;;;;;10.65;4.88;;;;;;;;;;10275131;28;20045;-57
2021/08/21 08:49:45;;;;;;;5.38;4.05;;;;;;;;;;10281963;28;20053;-58
2021/08/21 08:54:44;;;;;;;8.05;5.47;;;;;;;;;;10282529;28;20044;-58
2021/08/21 08:59:43;;;;;;;5.95;5.35;;;;;;;;;;10282354;28;20076;-58
2021/08/21 09:04:43;;;;;;;11.68;4.13;;;;;;;;;;10282163;28;20060;-58
2021/08/21 09:09:43;;;;;;;6.05;4.32;;;;;;;;;;10281941;28;20052;-57
2021/08/21 09:14:41;;;;;;;5.10;3.90;;;;;;;;;;10282088;28;20045;-56
2021/08/21 09:19:40;;;;;;;7.07;4.07;;;;;;;;;;10281654;28;20080;-57
2021/08/21 09:24:40;;;;;;;7.03;5.43;;;;;;;;;;10280364;28;20052;-57
2021/08/21 09:29:38;;;;;;;4.95;3.95;;;;;;;;;;10281355;28;20049;-57
2021/08/21 09:34:37;;;;;;;5.90;3.70;;;;;;;;;;10280955;28;20073;-58
2021/08/21 09:39:38;;;;;;;4.95;3.72;;;;;;;;;;10279669;28;20076;-57
2021/08/21 09:44:38;;;;;;;6.53;3.53;;;;;;;;;;10280752;28;20087;-58
2021/08/21 09:49:36;;;;;;;5.50;4.35;;;;;;;;;;10279937;28;20064;-58
2021/08/21 09:54:34;;;;;;;6.18;4.15;;;;;;;;;;10280434;28;20425;-57
2021/08/21 09:59:34;;;;;;;3.75;3.22;;;;;;;;;;10280112;28;20084;-57
2021/08/21 10:04:34;;;;;;;6.82;5.13;;;;;;;;;;10279987;28;20072;-56
2021/08/21 10:09:33;;;;;;;5.38;3.13;;;;;;;;;;10279939;28;20052;-57
2021/08/21 10:14:31;;;;;;;5.35;3.85;;;;;;;;;;10279602;28;20498;-57
2021/08/21 10:19:30;;;;;;;4.10;3.70;;;;;;;;;;10279590;28;20084;-57
2021/08/21 10:24:34;;;;;;;7.40;5.75;;;;;;;;;;10279061;28;20052;-57
2021/08/21 10:29:32;;;;;;;10.18;5.93;;;;;;;;;;10279417;28;20052;-57
2021/08/21 10:34:46;;;;;;;5.88;4.40;;;;;;;;;;10279378;28;20410;-57
2021/08/21 10:39:46;;;;;;;6.20;3.90;;;;;;;;;;10278256;28;20091;-57
2021/08/21 10:44:47;;;;;;;6.60;4.82;;;;;;;;;;10277596;28;20446;-58
2021/08/21 10:49:47;;;;;;;4.90;4.50;;;;;;;;;;10277981;28;20072;-58
2021/08/21 10:54:47;;;;;;;4.90;4.15;;;;;;;;;;10277988;28;20033;-57
2021/08/21 10:59:47;;;;;;;8.05;4.32;;;;;;;;;;10277783;28;20048;-57
2021/08/21 11:04:45;;;;;;;5.32;4.82;;;;;;;;;;10277804;28;20327;-57
2021/08/21 11:09:47;;;;;;;4.55;3.90;;;;;;;;;;10276924;28;20482;-58
2021/08/21 11:14:45;;;;;;;6.53;4.40;;;;;;;;;;10277279;28;20052;-57
2021/08/21 11:19:46;;;;;;;4.57;3.42;;;;;;;;;;10277544;28;20076;-58
2021/08/21 11:25:03;;;;;;;5.00;4.22;;;;;;;;;;10275933;28;20057;-58
2021/08/21 11:30:20;;;;;;;4.47;4.05;;;;;;;;;;10277115;28;20513;-57
2021/08/21 11:35:19;;;;;;;6.75;5.13;;;;;;;;;;10276268;28;20045;-58
2021/08/21 11:40:19;;;;;;;6.03;4.03;;;;;;;;;;10275525;28;20081;-58
2021/08/21 11:45:18;;;;;;;6.40;4.88;;;;;;;;;;10275518;28;20052;-58
2021/08/21 11:50:20;;;;;;;7.15;6.40;;;;;;;;;;10275663;28;20124;-58
2021/08/21 11:55:20;;;;;;;7.88;4.40;;;;;;;;;;10275266;28;20045;-58
2021/08/21 12:00:20;;;;;;;5.85;4.78;;;;;;;;;;10275732;28;20088;-58
2021/08/21 12:05:25;;;;;;;6.15;4.00;;;;;;;;;;10275324;28;20049;-58
2021/08/21 12:10:27;;;;;;;5.45;4.88;;;;;;;;;;10275186;28;20053;-57
2021/08/21 12:15:29;;;;;;;8.10;4.35;;;;;;;;;;10274812;28;20041;-56
2021/08/21 12:20:27;;;;;;;8.63;7.75;;;;;;;;;;10276600;28;20084;-58
2021/08/21 12:25:43;;;;;;;5.03;4.47;;;;;;;;;;10282826;28;20076;-58
2021/08/21 12:30:42;;;;;;;9.20;4.70;;;;;;;;;;10282784;28;20037;-57
2021/08/21 12:35:40;;;;;;;5.45;4.72;;;;;;;;;;10282620;28;20045;-57
2021/08/21 12:40:41;;;;;;;7.35;4.38;;;;;;;;;;10282560;28;20088;-57
2021/08/21 12:45:43;;;;;;;4.63;4.18;;;;;;;;;;10281888;28;20091;-56
2021/08/21 12:50:41;;;;;;;5.50;5.00;;;;;;;;;;10282055;28;20045;-57
2021/08/21 12:55:41;;;;;;;7.00;5.63;;;;;;;;;;10281977;28;20053;-57
2021/08/21 13:00:40;;;;;;;6.95;5.40;;;;;;;;;;10281919;28;20079;-57
2021/08/21 13:05:39;;;;;;;4.40;4.00;;;;;;;;;;10281301;28;20064;-57
2021/08/21 13:10:38;;;;;;;5.40;4.18;;;;;;;;;;10281202;28;20489;-58
2021/08/21 13:15:39;;;;;;;6.15;3.88;;;;;;;;;;10280824;28;20049;-57
2021/08/21 13:20:37;;;;;;;5.28;3.15;;;;;;;;;;10280879;28;20087;-57
2021/08/21 13:25:35;;;;;;;7.53;6.72;;;;;;;;;;10280808;28;20040;-58
2021/08/21 13:30:34;;;;;;;5.07;4.57;;;;;;;;;;10279969;28;20048;-57
2021/08/21 13:35:33;;;;;;;4.07;3.17;;;;;;;;;;10281279;28;20041;-57
2021/08/21 13:40:32;;;;;;;7.72;5.80;;;;;;;;;;10279932;28;20521;-57
2021/08/21 13:45:30;;;;;;;4.30;3.50;;;;;;;;;;10279557;28;20053;-58
2021/08/21 13:50:29;;;;;;;5.05;4.10;;;;;;;;;;10279461;28;20442;-56
2021/08/21 13:55:29;;;;;;;5.95;4.68;;;;;;;;;;10279352;28;20047;-57
2021/08/21 14:00:27;;;;;;;8.57;4.03;;;;;;;;;;10279145;28;20036;-57
2021/08/21 14:05:26;;;;;;;6.72;3.58;;;;;;;;;;10279419;28;20087;-58
2021/08/21 14:10:25;;;;;;;4.22;3.35;;;;;;;;;;10279228;28;20053;-57
2021/08/21 14:15:25;;;;;;;5.20;3.60;;;;;;;;;;10278624;28;20049;-57
2021/08/21 14:20:23;;;;;;;6.90;3.67;;;;;;;;;;10278158;28;20048;-57
2021/08/21 14:25:21;;;;;;;8.55;7.85;;;;;;;;;;10278695;28;20069;-58
2021/08/21 14:30:26;;;;;;;5.85;4.40;;;;;;;;;;10278658;28;20087;-58
2021/08/21 14:35:24;;;;;;;5.25;3.90;;;;;;;;;;10277812;28;20095;-56
2021/08/21 14:40:23;;;;;;;8.30;4.45;;;;;;;;;;10278172;28;20044;-56
2021/08/21 14:45:21;;;;;;;6.03;4.68;;;;;;;;;;10277033;28;20076;-56
2021/08/21 14:50:21;;;;;;;6.78;6.20;;;;;;;;;;10277639;28;20049;-57
2021/08/21 14:55:20;;;;;;;4.85;3.55;;;;;;;;;;10276928;28;20056;-58
2021/08/21 15:00:18;;;;;;;11.00;4.55;;;;;;;;;;10276876;28;20036;-58
2021/08/21 15:05:16;;;;;;;116.00;18.40;;;;;;;;;;10277201;28;20510;-58
2021/08/21 15:10:16;;;;;;;6.97;4.20;;;;;;;;;;10276416;28;20053;-59
2021/08/21 15:15:14;;;;;;;5.28;3.78;;;;;;;;;;10276334;28;20084;-53
2021/08/21 15:20:13;;;;;;;4.93;4.28;;;;;;;;;;10276637;28;20505;-56
2021/08/21 15:25:12;;;;;;;9.52;5.22;;;;;;;;;;10276168;28;20497;-59
2021/08/21 15:30:12;;;;;;;6.95;4.32;;;;;;;;;;10276013;28;20079;-58
2021/08/21 15:35:11;;;;;;;4.95;4.40;;;;;;;;;;10275622;28;20049;-58
2021/08/21 15:40:10;;;;;;;5.88;4.65;;;;;;;;;;10275779;28;20079;-58
2021/08/21 15:45:09;;;;;;;6.80;5.93;;;;;;;;;;10275565;28;20076;-57
2021/08/21 15:50:10;;;;;;;6.25;3.72;;;;;;;;;;10275663;28;20088;-58
2021/08/21 15:55:10;;;;;;;6.15;3.97;;;;;;;;;;10281476;28;20049;-58
2021/08/21 16:00:09;;;;;;;4.43;4.00;;;;;;;;;;10289202;28;20041;-57
2021/08/21 16:05:08;;;;;;;4.85;4.38;;;;;;;;;;10288451;28;20077;-58
2021/08/21 16:10:09;;;;;;;4.72;4.30;;;;;;;;;;10288406;28;20056;-58
2021/08/21 16:15:07;;;;;;;7.03;5.55;;;;;;;;;;10288428;28;20044;-58
2021/08/21 16:20:06;;;;;;;6.00;4.13;;;;;;;;;;10289619;28;20048;-58
2021/08/21 16:25:05;;;;;;;11.23;6.35;;;;;;;;;;10289317;28;20486;-58
2021/08/21 16:30:05;;;;;;;5.90;5.03;;;;;;;;;;10289407;28;20084;-58
2021/08/21 16:35:04;;;;;;;29.90;5.18;;;;;;;;;;10289278;28;20051;-57
2021/08/21 16:40:02;;;;;;;5.00;4.00;;;;;;;;;;10289305;28;20079;-58
2021/08/21 16:45:01;;;;;;;8.80;5.03;;;;;;;;;;10288882;28;20080;-55
2021/08/21 16:50:01;;;;;;;7.25;6.55;;;;;;;;;;10288442;28;20049;-55
2021/08/21 16:54:59;;;;;;;9.88;7.90;;;;;;;;;;10288937;28;20429;-51
2021/08/21 16:59:57;;;;;;;6.93;5.40;;;;;;;;;;10288871;28;20036;-55
2021/08/21 17:04:56;;;;;;;17.55;13.18;;;;;;;;;;10287845;28;20081;-54
2021/08/21 17:09:55;;;;;;;6.90;5.75;;;;;;;;;;10281819;28;20049;-55
2021/08/21 17:14:54;;;;;;;5.70;5.20;;;;;;;;;;10281875;28;20084;-54
2021/08/21 17:19:52;;;;;;;11.48;7.50;;;;;;;;;;10280779;28;20052;-55
2021/08/21 17:24:50;;;;;;;6.38;5.35;;;;;;;;;;10281529;28;20084;-54
2021/08/21 17:29:50;;;;;;;6.88;5.43;;;;;;;;;;10281460;28;20048;-55
2021/08/21 17:34:48;;;;;;;10.77;5.65;;;;;;;;;;10280293;28;20041;-55
2021/08/21 17:39:47;;;;;;;7.45;5.38;;;;;;;;;;10280977;28;20045;-56
2021/08/21 17:44:45;;;;;;;6.20;5.20;;;;;;;;;;10280681;28;20455;-52
2021/08/21 17:49:45;;;;;;;6.22;4.78;;;;;;;;;;10280131;28;20064;-54
2021/08/21 17:54:43;;;;;;;5.82;4.68;;;;;;;;;;10280025;28;20045;-53
2021/08/21 17:59:41;;;;;;;4.50;4.10;;;;;;;;;;10280381;28;20049;-55
2021/08/21 18:04:40;;;;;;;7.13;4.53;;;;;;;;;;10280159;28;20076;-55
2021/08/21 18:09:39;;;;;;;9.25;5.05;;;;;;;;;;10279796;28;20426;-56
2021/08/21 18:14:38;;;;;;;5.30;3.60;;;;;;;;;;10279530;28;20052;-57
2021/08/21 18:19:36;;;;;;;5.35;3.22;;;;;;;;;;10278515;28;20041;-56
2021/08/21 18:24:35;;;;;;;4.28;3.88;;;;;;;;;;10278215;28;20044;-54
2021/08/21 18:29:34;;;;;;;5.97;4.60;;;;;;;;;;10279110;28;20388;-57
2021/08/21 18:34:32;;;;;;;10.90;4.47;;;;;;;;;;10279011;28;20041;-56
2021/08/21 18:39:31;;;;;;;7.60;4.32;;;;;;;;;;10278784;28;20048;-55
2021/08/21 18:44:30;;;;;;;5.93;4.57;;;;;;;;;;10278324;28;20075;-56
2021/08/21 18:49:29;;;;;;;6.65;3.88;;;;;;;;;;10277607;28;20426;-54
2021/08/21 18:54:28;;;;;;;6.55;4.40;;;;;;;;;;10278148;28;20056;-53
2021/08/21 18:59:26;;;;;;;6.88;4.40;;;;;;;;;;10276995;28;20045;-55
2021/08/21 19:04:25;;;;;;;5.57;4.65;;;;;;;;;;10277703;28;20459;-54
2021/08/21 19:09:24;;;;;;;6.47;4.38;;;;;;;;;;10277514;28;20053;-56
2021/08/21 19:14:23;;;;;;;5.10;4.60;;;;;;;;;;10277254;28;20041;-55
2021/08/21 19:19:21;;;;;;;5.47;4.95;;;;;;;;;;10277383;28;20044;-56
2021/08/21 19:24:19;;;;;;;7.55;4.07;;;;;;;;;;10277084;28;20076;-55
2021/08/21 19:29:19;;;;;;;5.90;3.78;;;;;;;;;;10276594;28;20171;-56
2021/08/21 19:34:17;;;;;;;5.90;5.30;;;;;;;;;;10276860;28;20073;-56
2021/08/21 19:39:16;;;;;;;4.13;3.65;;;;;;;;;;10276717;28;20049;-56
2021/08/21 19:44:14;;;;;;;4.45;3.90;;;;;;;;;;10276436;28;20080;-55
2021/08/21 19:49:14;;;;;;;5.18;4.22;;;;;;;;;;10275929;28;20445;-56
2021/08/21 19:54:15;;;;;;;4.38;4.03;;;;;;;;;;10264333;28;20135;-55
2021/08/21 19:59:13;;;;;;;6.97;3.92;;;;;;;;;;10278676;28;20064;-55
2021/08/21 20:04:12;;;;;;;7.32;3.67;;;;;;;;;;10290186;28;20065;-55
2021/08/21 20:09:11;;;;;;;6.00;4.30;;;;;;;;;;10287524;28;20071;-55
2021/08/21 20:14:10;;;;;;;5.68;5.13;;;;;;;;;;10288636;28;20072;-54
2021/08/21 20:19:08;;;;;;;6.38;4.15;;;;;;;;;;10291191;28;20044;-52
2021/08/21 20:24:06;;;;;;;5.93;3.67;;;;;;;;;;10272713;28;20076;-55
2021/08/21 20:29:06;;;;;;;6.82;4.07;;;;;;;;;;10278716;28;20056;-55
2021/08/21 20:34:05;;;;;;;7.18;4.57;;;;;;;;;;10280747;28;20439;-56
2021/08/21 20:39:07;;;;;;;4.57;3.63;;;;;;;;;;10275327;28;20068;-55
2021/08/21 20:44:07;;;;;;;6.40;4.18;;;;;;;;;;10280130;28;20765;-53
2021/08/21 20:49:07;;;;;;;4.32;3.65;;;;;;;;;;10282125;28;20475;-57
2021/08/21 20:54:05;;;;;;;5.78;3.55;;;;;;;;;;10282503;28;20485;-56
2021/08/21 20:59:03;;;;;;;13.27;4.47;;;;;;;;;;10281667;28;20077;-56
2021/08/21 21:04:03;;;;;;;5.13;3.45;;;;;;;;;;10282569;28;20087;-54
2021/08/21 21:09:01;;;;;;;6.13;3.42;;;;;;;;;;10282315;28;20052;-56
2021/08/21 21:14:00;;;;;;;5.93;2.92;;;;;;;;;;10282146;28;20044;-55
2021/08/21 21:18:58;;;;;;;4.18;3.10;;;;;;;;;;10281810;28;20056;-56
2021/08/21 21:23:58;;;;;;;3.85;2.95;;;;;;;;;;10281453;28;20552;-53
2021/08/21 21:29:16;;;;;;;4.05;2.95;;;;;;;;;;10281612;28;20049;-53
2021/08/21 21:34:14;;;;;;;4.82;3.40;;;;;;;;;;10281322;28;20426;-53
2021/08/21 21:39:16;;;;;;;3.63;3.22;;;;;;;;;;10281147;28;20422;-54
2021/08/21 21:44:16;;;;;;;3.65;3.00;;;;;;;;;;10280825;28;20083;-55
2021/08/21 21:49:14;;;;;;;5.50;3.30;;;;;;;;;;10280221;28;20057;-52
2021/08/21 21:54:14;;;;;;;3.47;3.17;;;;;;;;;;10279770;28;20059;-55
2021/08/21 21:59:12;;;;;;;2.80;2.60;;;;;;;;;;10280420;28;20439;-54
2021/08/21 22:04:10;;;;;;;5.78;3.50;;;;;;;;;;10280073;28;20076;-56
2021/08/21 22:09:08;;;;;;;7.85;3.38;;;;;;;;;;10279897;28;20045;-55
2021/08/21 22:14:08;;;;;;;3.20;2.90;;;;;;;;;;10279763;28;20473;-56
2021/08/21 22:19:07;;;;;;;6.25;2.88;;;;;;;;;;10279582;28;20052;-57
2021/08/21 22:24:05;;;;;;;5.93;3.00;;;;;;;;;;10279416;28;20081;-56
2021/08/21 22:29:07;;;;;;;7.03;2.72;;;;;;;;;;10279240;28;20045;-56
2021/08/21 22:34:06;;;;;;;5.20;2.72;;;;;;;;;;10278919;28;20037;-57
2021/08/21 22:39:05;;;;;;;7.35;3.55;;;;;;;;;;10277495;28;20037;-57
2021/08/21 22:44:03;;;;;;;5.45;2.45;;;;;;;;;;10278546;28;20080;-56
2021/08/21 22:49:03;;;;;;;5.95;3.20;;;;;;;;;;10277929;28;20053;-55
2021/08/21 22:54:01;;;;;;;3.53;2.60;;;;;;;;;;10278370;28;20044;-55
2021/08/21 22:59:00;;;;;;;3.67;2.72;;;;;;;;;;10278173;28;20045;-56
2021/08/21 23:03:58;;;;;;;2.80;2.45;;;;;;;;;;10277129;28;20045;-56
2021/08/21 23:08:58;;;;;;;3.65;3.00;;;;;;;;;;10277527;28;20060;-56
2021/08/21 23:13:56;;;;;;;3.83;2.97;;;;;;;;;;10277489;28;20045;-56
2021/08/21 23:18:55;;;;;;;3.10;2.80;;;;;;;;;;10277160;28;20059;-54
2021/08/21 23:23:53;;;;;;;3.85;3.08;;;;;;;;;;10277308;28;20036;-57
2021/08/21 23:28:54;;;;;;;3.78;2.90;;;;;;;;;;10277208;28;20052;-56
2021/08/21 23:33:52;;;;;;;4.22;3.65;;;;;;;;;;10276759;28;20076;-54
2021/08/21 23:38:51;;;;;;;3.53;3.08;;;;;;;;;;10276609;28;20041;-54
2021/08/21 23:43:49;;;;;;;4.35;3.00;;;;;;;;;;10276674;28;20067;-55
2021/08/21 23:48:49;;;;;;;3.35;2.97;;;;;;;;;;10275820;28;20091;-56
2021/08/21 23:53:47;;;;;;;4.25;3.00;;;;;;;;;;10276290;28;20049;-56
2021/08/21 23:58:46;;;;;;;4.15;3.08;;;;;;;;;;10275846;28;20045;-56
